sensor_id;sensor_type;location;lat;lon;timestamp;noise_LAeq;noise_LA_min;noise_LA_max;noise_LA01;noise_LA95
77134;Laerm;25175;50.140;18.990;2023-07-22T00:02:00;34.98;33.11;37.82;;
77134;Laerm;25175;50.140;18.990;2023-07-22T00:05:06;35.18;33.09;39.08;;
77134;Laerm;25175;50.140;18.990;2023-07-22T00:08:12;34.98;33.04;37.37;;
77134;Laerm;25175;50.140;18.990;2023-07-22T00:11:17;36.14;33.20;44.48;;
77134;Laerm;25175;50.140;18.990;2023-07-22T00:14:22;37.23;33.63;46.98;;
77134;Laerm;25175;50.140;18.990;2023-07-22T00:17:29;38.91;33.41;56.41;;
77134;Laerm;25175;50.140;18.990;2023-07-22T00:20:34;35.38;33.49;39.36;;
77134;Laerm;25175;50.140;18.990;2023-07-22T00:23:39;40.72;33.67;59.47;;
77134;Laerm;25175;50.140;18.990;2023-07-22T00:26:44;38.14;33.54;53.41;;
77134;Laerm;25175;50.140;18.990;2023-07-22T00:29:48;35.15;33.38;40.87;;
77134;Laerm;25175;50.140;18.990;2023-07-22T00:32:56;35.33;32.90;39.75;;
77134;Laerm;25175;50.140;18.990;2023-07-22T00:36:01;35.75;33.63;40.81;;
77134;Laerm;25175;50.140;18.990;2023-07-22T00:39:06;35.90;33.85;40.13;;
77134;Laerm;25175;50.140;18.990;2023-07-22T00:42:10;36.62;33.87;43.52;;
77134;Laerm;25175;50.140;18.990;2023-07-22T00:45:16;36.68;34.03;40.97;;
77134;Laerm;25175;50.140;18.990;2023-07-22T00:48:23;37.58;34.26;48.77;;
77134;Laerm;25175;50.140;18.990;2023-07-22T00:51:29;38.44;34.55;54.80;;
77134;Laerm;25175;50.140;18.990;2023-07-22T00:54:35;36.71;33.97;40.72;;
77134;Laerm;25175;50.140;18.990;2023-07-22T00:57:40;37.20;34.30;41.74;;
77134;Laerm;25175;50.140;18.990;2023-07-22T01:00:45;37.33;34.73;42.85;;
77134;Laerm;25175;50.140;18.990;2023-07-22T01:03:54;39.29;34.10;48.99;;
77134;Laerm;25175;50.140;18.990;2023-07-22T01:06:59;39.41;34.87;51.61;;
77134;Laerm;25175;50.140;18.990;2023-07-22T01:10:07;36.69;34.25;40.26;;
77134;Laerm;25175;50.140;18.990;2023-07-22T01:13:12;36.67;34.28;40.87;;
77134;Laerm;25175;50.140;18.990;2023-07-22T01:16:18;36.47;33.96;40.84;;
77134;Laerm;25175;50.140;18.990;2023-07-22T01:19:25;36.43;33.46;44.70;;
77134;Laerm;25175;50.140;18.990;2023-07-22T01:22:33;36.35;33.82;43.89;;
77134;Laerm;25175;50.140;18.990;2023-07-22T01:25:41;36.43;34.00;42.47;;
77134;Laerm;25175;50.140;18.990;2023-07-22T01:28:48;36.22;34.13;38.84;;
77134;Laerm;25175;50.140;18.990;2023-07-22T01:31:55;36.60;33.79;41.75;;
77134;Laerm;25175;50.140;18.990;2023-07-22T01:35:00;36.48;34.16;39.89;;
77134;Laerm;25175;50.140;18.990;2023-07-22T01:38:04;37.03;33.91;41.10;;
77134;Laerm;25175;50.140;18.990;2023-07-22T01:41:12;37.45;34.77;42.84;;
77134;Laerm;25175;50.140;18.990;2023-07-22T01:44:17;37.12;34.53;50.18;;
77134;Laerm;25175;50.140;18.990;2023-07-22T01:47:22;36.92;34.17;44.11;;
77134;Laerm;25175;50.140;18.990;2023-07-22T01:50:28;36.84;34.37;39.73;;
77134;Laerm;25175;50.140;18.990;2023-07-22T01:53:33;37.29;34.21;40.50;;
77134;Laerm;25175;50.140;18.990;2023-07-22T01:56:41;36.71;34.06;39.89;;
77134;Laerm;25175;50.140;18.990;2023-07-22T01:59:46;36.68;34.37;44.77;;
77134;Laerm;25175;50.140;18.990;2023-07-22T02:02:51;37.06;34.10;43.91;;
77134;Laerm;25175;50.140;18.990;2023-07-22T02:06:02;39.64;34.13;55.03;;
77134;Laerm;25175;50.140;18.990;2023-07-22T02:09:07;36.83;33.90;44.85;;
77134;Laerm;25175;50.140;18.990;2023-07-22T02:12:18;37.18;34.29;47.09;;
77134;Laerm;25175;50.140;18.990;2023-07-22T02:15:23;36.79;33.89;46.27;;
77134;Laerm;25175;50.140;18.990;2023-07-22T02:18:30;36.70;33.71;47.81;;
77134;Laerm;25175;50.140;18.990;2023-07-22T02:21:34;37.70;34.00;48.11;;
77134;Laerm;25175;50.140;18.990;2023-07-22T02:24:40;37.53;34.05;48.48;;
77134;Laerm;25175;50.140;18.990;2023-07-22T02:27:47;37.20;34.55;46.85;;
77134;Laerm;25175;50.140;18.990;2023-07-22T02:30:53;36.53;33.87;40.54;;
77134;Laerm;25175;50.140;18.990;2023-07-22T02:33:58;38.96;34.19;54.71;;
77134;Laerm;25175;50.140;18.990;2023-07-22T02:37:05;36.28;33.85;40.66;;
77134;Laerm;25175;50.140;18.990;2023-07-22T02:40:10;37.01;33.92;51.93;;
77134;Laerm;25175;50.140;18.990;2023-07-22T02:43:18;37.87;34.22;54.89;;
77134;Laerm;25175;50.140;18.990;2023-07-22T02:46:22;36.60;34.13;48.55;;
77134;Laerm;25175;50.140;18.990;2023-07-22T02:49:28;36.34;34.11;41.18;;
77134;Laerm;25175;50.140;18.990;2023-07-22T02:52:33;40.46;34.03;58.16;;
77134;Laerm;25175;50.140;18.990;2023-07-22T02:55:39;38.98;34.58;51.58;;
77134;Laerm;25175;50.140;18.990;2023-07-22T02:58:46;40.43;35.34;49.86;;
77134;Laerm;25175;50.140;18.990;2023-07-22T03:01:52;41.14;35.34;50.91;;
77134;Laerm;25175;50.140;18.990;2023-07-22T03:04:58;37.77;34.36;47.80;;
77134;Laerm;25175;50.140;18.990;2023-07-22T03:08:05;36.06;33.89;40.81;;
77134;Laerm;25175;50.140;18.990;2023-07-22T03:11:09;38.70;33.56;52.91;;
77134;Laerm;25175;50.140;18.990;2023-07-22T03:14:17;39.76;34.14;55.69;;
77134;Laerm;25175;50.140;18.990;2023-07-22T03:17:23;36.75;33.90;44.29;;
77134;Laerm;25175;50.140;18.990;2023-07-22T03:20:29;39.54;33.89;55.14;;
77134;Laerm;25175;50.140;18.990;2023-07-22T03:23:34;39.44;34.01;54.79;;
77134;Laerm;25175;50.140;18.990;2023-07-22T03:26:39;39.04;34.29;51.70;;
77134;Laerm;25175;50.140;18.990;2023-07-22T03:29:46;41.02;34.09;59.11;;
77134;Laerm;25175;50.140;18.990;2023-07-22T03:32:51;39.79;34.90;48.85;;
77134;Laerm;25175;50.140;18.990;2023-07-22T03:35:56;39.67;34.50;55.48;;
77134;Laerm;25175;50.140;18.990;2023-07-22T03:39:02;40.04;34.76;52.05;;
77134;Laerm;25175;50.140;18.990;2023-07-22T03:42:08;44.48;37.07;63.43;;
77134;Laerm;25175;50.140;18.990;2023-07-22T03:45:17;38.17;34.37;45.52;;
77134;Laerm;25175;50.140;18.990;2023-07-22T03:48:22;38.66;34.29;52.37;;
77134;Laerm;25175;50.140;18.990;2023-07-22T03:51:27;41.51;33.79;59.97;;
77134;Laerm;25175;50.140;18.990;2023-07-22T03:54:31;38.07;34.33;52.02;;
77134;Laerm;25175;50.140;18.990;2023-07-22T03:57:37;39.90;33.90;56.34;;
77134;Laerm;25175;50.140;18.990;2023-07-22T04:00:49;39.82;33.35;56.89;;
77134;Laerm;25175;50.140;18.990;2023-07-22T04:03:54;38.68;33.64;53.18;;
77134;Laerm;25175;50.140;18.990;2023-07-22T04:06:58;40.69;33.34;59.83;;
77134;Laerm;25175;50.140;18.990;2023-07-22T04:10:05;40.35;34.16;54.09;;
77134;Laerm;25175;50.140;18.990;2023-07-22T04:13:10;40.01;34.29;53.83;;
77134;Laerm;25175;50.140;18.990;2023-07-22T04:16:18;39.52;34.13;50.35;;
77134;Laerm;25175;50.140;18.990;2023-07-22T04:19:22;43.42;34.33;58.83;;
77134;Laerm;25175;50.140;18.990;2023-07-22T04:22:29;41.59;33.87;55.64;;
77134;Laerm;25175;50.140;18.990;2023-07-22T04:25:39;41.27;34.03;54.78;;
77134;Laerm;25175;50.140;18.990;2023-07-22T04:28:44;41.29;34.31;53.53;;
77134;Laerm;25175;50.140;18.990;2023-07-22T04:31:51;41.61;34.94;50.37;;
77134;Laerm;25175;50.140;18.990;2023-07-22T04:35:03;45.06;39.89;56.89;;
77134;Laerm;25175;50.140;18.990;2023-07-22T04:38:08;43.16;36.02;55.67;;
77134;Laerm;25175;50.140;18.990;2023-07-22T04:41:13;39.24;35.63;50.07;;
77134;Laerm;25175;50.140;18.990;2023-07-22T04:44:18;39.75;34.09;54.31;;
77134;Laerm;25175;50.140;18.990;2023-07-22T04:47:26;41.44;33.97;66.03;;
77134;Laerm;25175;50.140;18.990;2023-07-22T04:50:31;45.08;34.84;65.77;;
77134;Laerm;25175;50.140;18.990;2023-07-22T04:53:36;40.79;34.28;54.07;;
77134;Laerm;25175;50.140;18.990;2023-07-22T04:56:41;39.48;33.97;54.63;;
77134;Laerm;25175;50.140;18.990;2023-07-22T04:59:47;42.02;34.39;55.49;;
77134;Laerm;25175;50.140;18.990;2023-07-22T05:02:54;36.96;33.79;48.16;;
77134;Laerm;25175;50.140;18.990;2023-07-22T05:06:00;44.28;34.75;60.45;;
77134;Laerm;25175;50.140;18.990;2023-07-22T05:09:04;44.66;34.69;59.11;;
77134;Laerm;25175;50.140;18.990;2023-07-22T05:12:10;47.31;34.78;66.56;;
77134;Laerm;25175;50.140;18.990;2023-07-22T05:15:14;40.89;33.99;57.65;;
77134;Laerm;25175;50.140;18.990;2023-07-22T05:18:22;42.96;34.22;60.34;;
77134;Laerm;25175;50.140;18.990;2023-07-22T05:21:27;41.63;33.62;65.81;;
77134;Laerm;25175;50.140;18.990;2023-07-22T05:24:32;42.02;33.97;53.15;;
77134;Laerm;25175;50.140;18.990;2023-07-22T05:27:37;36.62;33.88;53.00;;
77134;Laerm;25175;50.140;18.990;2023-07-22T05:30:42;41.49;33.56;61.93;;
77134;Laerm;25175;50.140;18.990;2023-07-22T05:33:49;46.53;35.04;58.66;;
77134;Laerm;25175;50.140;18.990;2023-07-22T05:36:55;42.92;34.54;56.92;;
77134;Laerm;25175;50.140;18.990;2023-07-22T05:39:59;44.95;34.66;60.18;;
77134;Laerm;25175;50.140;18.990;2023-07-22T05:43:05;43.59;34.48;57.69;;
77134;Laerm;25175;50.140;18.990;2023-07-22T05:46:09;41.17;34.18;57.04;;
77134;Laerm;25175;50.140;18.990;2023-07-22T05:49:17;45.91;34.39;69.95;;
77134;Laerm;25175;50.140;18.990;2023-07-22T05:52:21;41.13;33.78;56.90;;
77134;Laerm;25175;50.140;18.990;2023-07-22T05:55:27;42.33;33.96;61.69;;
77134;Laerm;25175;50.140;18.990;2023-07-22T05:58:32;44.33;34.05;59.79;;
77134;Laerm;25175;50.140;18.990;2023-07-22T06:01:37;42.91;34.29;64.85;;
77134;Laerm;25175;50.140;18.990;2023-07-22T06:04:44;40.75;34.25;53.87;;
77134;Laerm;25175;50.140;18.990;2023-07-22T06:07:50;43.50;34.22;57.98;;
77134;Laerm;25175;50.140;18.990;2023-07-22T06:10:56;43.27;34.06;65.22;;
77134;Laerm;25175;50.140;18.990;2023-07-22T06:14:02;47.56;33.81;70.90;;
77134;Laerm;25175;50.140;18.990;2023-07-22T06:17:07;43.77;33.84;55.05;;
77134;Laerm;25175;50.140;18.990;2023-07-22T06:20:15;41.01;33.69;53.43;;
77134;Laerm;25175;50.140;18.990;2023-07-22T06:23:19;42.74;33.79;55.27;;
77134;Laerm;25175;50.140;18.990;2023-07-22T06:26:25;41.89;33.19;56.52;;
77134;Laerm;25175;50.140;18.990;2023-07-22T06:29:29;50.40;34.34;74.02;;
77134;Laerm;25175;50.140;18.990;2023-07-22T06:32:37;45.09;33.74;59.02;;
77134;Laerm;25175;50.140;18.990;2023-07-22T06:35:45;46.28;33.92;67.79;;
77134;Laerm;25175;50.140;18.990;2023-07-22T06:38:50;43.45;33.66;65.41;;
77134;Laerm;25175;50.140;18.990;2023-07-22T06:41:57;39.86;33.90;54.82;;
77134;Laerm;25175;50.140;18.990;2023-07-22T06:45:02;42.41;34.27;56.94;;
77134;Laerm;25175;50.140;18.990;2023-07-22T06:48:07;43.04;34.13;54.69;;
77134;Laerm;25175;50.140;18.990;2023-07-22T06:51:15;45.71;33.73;61.53;;
77134;Laerm;25175;50.140;18.990;2023-07-22T06:54:19;41.33;34.62;62.03;;
77134;Laerm;25175;50.140;18.990;2023-07-22T06:57:24;44.22;34.73;62.10;;
77134;Laerm;25175;50.140;18.990;2023-07-22T07:00:29;46.25;34.25;60.54;;
77134;Laerm;25175;50.140;18.990;2023-07-22T07:03:34;41.43;34.27;54.90;;
77134;Laerm;25175;50.140;18.990;2023-07-22T07:06:41;43.30;33.91;54.98;;
77134;Laerm;25175;50.140;18.990;2023-07-22T07:09:48;45.82;34.19;65.46;;
77134;Laerm;25175;50.140;18.990;2023-07-22T07:12:52;47.08;33.56;70.38;;
77134;Laerm;25175;50.140;18.990;2023-07-22T07:16:21;40.25;33.44;55.19;;
77134;Laerm;25175;50.140;18.990;2023-07-22T07:19:27;51.57;34.64;72.21;;
77134;Laerm;25175;50.140;18.990;2023-07-22T07:22:35;43.61;33.89;62.57;;
77134;Laerm;25175;50.140;18.990;2023-07-22T07:25:39;43.39;33.98;55.21;;
77134;Laerm;25175;50.140;18.990;2023-07-22T07:28:45;43.61;34.06;54.83;;
77134;Laerm;25175;50.140;18.990;2023-07-22T07:31:51;42.91;34.64;55.50;;
77134;Laerm;25175;50.140;18.990;2023-07-22T07:34:56;49.16;34.46;65.88;;
77134;Laerm;25175;50.140;18.990;2023-07-22T07:38:03;43.66;34.00;57.10;;
77134;Laerm;25175;50.140;18.990;2023-07-22T07:41:11;44.17;33.60;57.43;;
77134;Laerm;25175;50.140;18.990;2023-07-22T07:44:16;45.72;34.09;59.10;;
77134;Laerm;25175;50.140;18.990;2023-07-22T07:47:21;45.25;34.19;58.94;;
77134;Laerm;25175;50.140;18.990;2023-07-22T07:50:25;39.74;33.29;57.84;;
77134;Laerm;25175;50.140;18.990;2023-07-22T07:53:33;42.79;33.99;64.70;;
77134;Laerm;25175;50.140;18.990;2023-07-22T07:56:38;43.93;34.66;61.16;;
77134;Laerm;25175;50.140;18.990;2023-07-22T07:59:43;45.67;35.01;57.55;;
77134;Laerm;25175;50.140;18.990;2023-07-22T08:02:47;45.16;35.80;64.59;;
77134;Laerm;25175;50.140;18.990;2023-07-22T08:05:53;42.29;35.63;56.33;;
77134;Laerm;25175;50.140;18.990;2023-07-22T08:09:00;43.35;34.47;54.59;;
77134;Laerm;25175;50.140;18.990;2023-07-22T08:12:06;42.86;34.96;65.25;;
77134;Laerm;25175;50.140;18.990;2023-07-22T08:15:11;45.00;35.02;61.88;;
77134;Laerm;25175;50.140;18.990;2023-07-22T08:18:16;43.23;35.52;63.17;;
77134;Laerm;25175;50.140;18.990;2023-07-22T08:21:20;45.26;35.52;57.67;;
77134;Laerm;25175;50.140;18.990;2023-07-22T08:24:28;44.68;35.13;58.20;;
77134;Laerm;25175;50.140;18.990;2023-07-22T08:27:33;45.83;35.86;59.93;;
77134;Laerm;25175;50.140;18.990;2023-07-22T08:30:39;44.78;36.17;57.83;;
77134;Laerm;25175;50.140;18.990;2023-07-22T08:33:43;43.94;36.13;56.77;;
77134;Laerm;25175;50.140;18.990;2023-07-22T08:36:49;45.48;35.65;58.62;;
77134;Laerm;25175;50.140;18.990;2023-07-22T08:39:56;44.94;35.30;59.40;;
77134;Laerm;25175;50.140;18.990;2023-07-22T08:43:04;46.51;35.34;64.10;;
77134;Laerm;25175;50.140;18.990;2023-07-22T08:46:12;44.77;35.11;65.67;;
77134;Laerm;25175;50.140;18.990;2023-07-22T08:49:18;44.17;34.69;68.00;;
77134;Laerm;25175;50.140;18.990;2023-07-22T08:52:23;62.32;34.78;96.61;;
77134;Laerm;25175;50.140;18.990;2023-07-22T08:55:31;45.60;34.82;69.45;;
77134;Laerm;25175;50.140;18.990;2023-07-22T08:58:36;45.90;34.77;63.80;;
77134;Laerm;25175;50.140;18.990;2023-07-22T09:01:43;46.05;34.83;70.84;;
77134;Laerm;25175;50.140;18.990;2023-07-22T09:04:48;50.62;36.80;79.52;;
77134;Laerm;25175;50.140;18.990;2023-07-22T09:07:54;43.84;35.62;55.85;;
77134;Laerm;25175;50.140;18.990;2023-07-22T09:11:02;47.24;35.97;60.16;;
77134;Laerm;25175;50.140;18.990;2023-07-22T09:14:08;43.68;34.68;58.35;;
77134;Laerm;25175;50.140;18.990;2023-07-22T09:17:12;40.57;35.25;52.83;;
77134;Laerm;25175;50.140;18.990;2023-07-22T09:20:20;43.72;35.72;56.61;;
77134;Laerm;25175;50.140;18.990;2023-07-22T09:23:36;44.26;35.11;55.58;;
77134;Laerm;25175;50.140;18.990;2023-07-22T09:26:44;43.66;35.42;55.12;;
77134;Laerm;25175;50.140;18.990;2023-07-22T09:29:49;42.44;35.85;55.87;;
77134;Laerm;25175;50.140;18.990;2023-07-22T09:32:57;47.10;36.08;64.18;;
77134;Laerm;25175;50.140;18.990;2023-07-22T09:36:05;44.67;35.34;62.25;;
77134;Laerm;25175;50.140;18.990;2023-07-22T09:39:14;45.17;34.47;70.75;;
77134;Laerm;25175;50.140;18.990;2023-07-22T09:42:27;44.70;35.26;71.06;;
77134;Laerm;25175;50.140;18.990;2023-07-22T09:45:33;48.04;36.08;62.40;;
77134;Laerm;25175;50.140;18.990;2023-07-22T09:48:43;46.14;35.20;74.27;;
77134;Laerm;25175;50.140;18.990;2023-07-22T09:51:51;52.26;34.09;75.72;;
77134;Laerm;25175;50.140;18.990;2023-07-22T09:54:59;52.91;34.17;84.16;;
77134;Laerm;25175;50.140;18.990;2023-07-22T09:58:07;48.39;34.74;70.12;;
77134;Laerm;25175;50.140;18.990;2023-07-22T10:01:17;46.52;34.44;71.91;;
77134;Laerm;25175;50.140;18.990;2023-07-22T10:04:28;48.88;36.58;71.70;;
77134;Laerm;25175;50.140;18.990;2023-07-22T10:07:37;61.93;36.63;86.85;;
77134;Laerm;25175;50.140;18.990;2023-07-22T10:10:46;43.94;35.38;64.31;;
77134;Laerm;25175;50.140;18.990;2023-07-22T10:13:55;51.75;35.72;79.64;;
77134;Laerm;25175;50.140;18.990;2023-07-22T10:17:00;48.86;35.50;74.81;;
77134;Laerm;25175;50.140;18.990;2023-07-22T10:20:07;46.82;34.52;69.80;;
77134;Laerm;25175;50.140;18.990;2023-07-22T10:23:18;46.92;34.30;73.58;;
77134;Laerm;25175;50.140;18.990;2023-07-22T10:26:24;43.07;34.54;55.74;;
77134;Laerm;25175;50.140;18.990;2023-07-22T10:29:34;42.20;34.29;55.52;;
77134;Laerm;25175;50.140;18.990;2023-07-22T10:32:42;43.81;34.76;59.16;;
77134;Laerm;25175;50.140;18.990;2023-07-22T10:36:05;42.83;34.34;60.09;;
77134;Laerm;25175;50.140;18.990;2023-07-22T10:39:25;44.42;35.16;56.37;;
77134;Laerm;25175;50.140;18.990;2023-07-22T10:42:32;44.48;35.39;56.37;;
77134;Laerm;25175;50.140;18.990;2023-07-22T10:45:50;45.28;36.33;60.58;;
77134;Laerm;25175;50.140;18.990;2023-07-22T10:49:09;44.20;35.68;58.30;;
77134;Laerm;25175;50.140;18.990;2023-07-22T10:52:15;42.44;34.88;56.07;;
77134;Laerm;25175;50.140;18.990;2023-07-22T10:56:19;46.48;34.88;78.44;;
77134;Laerm;25175;50.140;18.990;2023-07-22T10:59:27;45.73;34.63;62.57;;
77134;Laerm;25175;50.140;18.990;2023-07-22T11:02:40;44.80;34.31;68.04;;
77134;Laerm;25175;50.140;18.990;2023-07-22T11:05:50;44.79;34.78;59.46;;
77134;Laerm;25175;50.140;18.990;2023-07-22T11:08:58;43.64;35.05;56.20;;
77134;Laerm;25175;50.140;18.990;2023-07-22T11:12:05;44.90;35.40;54.77;;
77134;Laerm;25175;50.140;18.990;2023-07-22T11:15:16;44.64;34.42;63.89;;
77134;Laerm;25175;50.140;18.990;2023-07-22T11:18:36;47.37;35.17;64.51;;
77134;Laerm;25175;50.140;18.990;2023-07-22T11:21:43;43.03;35.08;54.39;;
77134;Laerm;25175;50.140;18.990;2023-07-22T11:24:49;41.98;33.97;57.98;;
77134;Laerm;25175;50.140;18.990;2023-07-22T11:27:54;45.31;34.04;58.62;;
77134;Laerm;25175;50.140;18.990;2023-07-22T11:30:59;44.60;34.20;56.56;;
77134;Laerm;25175;50.140;18.990;2023-07-22T11:34:08;43.84;35.65;65.05;;
77134;Laerm;25175;50.140;18.990;2023-07-22T11:37:13;41.74;35.36;53.18;;
77134;Laerm;25175;50.140;18.990;2023-07-22T11:40:19;42.95;35.10;59.96;;
77134;Laerm;25175;50.140;18.990;2023-07-22T11:43:24;43.05;34.85;55.85;;
77134;Laerm;25175;50.140;18.990;2023-07-22T11:46:29;43.14;35.51;57.61;;
77134;Laerm;25175;50.140;18.990;2023-07-22T11:49:38;44.22;34.56;57.89;;
77134;Laerm;25175;50.140;18.990;2023-07-22T11:52:50;45.80;34.25;62.51;;
77134;Laerm;25175;50.140;18.990;2023-07-22T11:55:56;42.84;34.47;58.84;;
77134;Laerm;25175;50.140;18.990;2023-07-22T11:59:01;43.40;34.58;58.56;;
77134;Laerm;25175;50.140;18.990;2023-07-22T12:02:06;47.58;35.91;63.28;;
77134;Laerm;25175;50.140;18.990;2023-07-22T12:05:21;43.36;34.62;59.43;;
77134;Laerm;25175;50.140;18.990;2023-07-22T12:08:26;45.08;34.91;57.63;;
77134;Laerm;25175;50.140;18.990;2023-07-22T12:11:33;43.19;35.06;57.75;;
77134;Laerm;25175;50.140;18.990;2023-07-22T12:14:38;45.61;35.12;66.25;;
77134;Laerm;25175;50.140;18.990;2023-07-22T12:17:48;42.06;34.58;53.89;;
77134;Laerm;25175;50.140;18.990;2023-07-22T12:20:57;45.09;34.38;59.58;;
77134;Laerm;25175;50.140;18.990;2023-07-22T12:24:03;41.91;34.22;57.88;;
77134;Laerm;25175;50.140;18.990;2023-07-22T12:27:08;49.07;34.89;78.50;;
77134;Laerm;25175;50.140;18.990;2023-07-22T12:30:13;45.24;34.13;71.28;;
77134;Laerm;25175;50.140;18.990;2023-07-22T12:33:17;48.84;35.15;69.52;;
77134;Laerm;25175;50.140;18.990;2023-07-22T12:36:25;53.76;34.52;77.48;;
77134;Laerm;25175;50.140;18.990;2023-07-22T12:39:30;53.92;34.59;75.14;;
77134;Laerm;25175;50.140;18.990;2023-07-22T12:42:35;41.78;34.35;55.68;;
77134;Laerm;25175;50.140;18.990;2023-07-22T12:45:39;46.85;34.04;73.60;;
77134;Laerm;25175;50.140;18.990;2023-07-22T12:48:45;42.67;33.64;58.30;;
77134;Laerm;25175;50.140;18.990;2023-07-22T12:51:52;45.23;35.01;57.57;;
77134;Laerm;25175;50.140;18.990;2023-07-22T12:54:57;45.19;35.04;56.81;;
77134;Laerm;25175;50.140;18.990;2023-07-22T12:58:02;45.36;34.25;69.41;;
77134;Laerm;25175;50.140;18.990;2023-07-22T13:01:07;46.65;34.27;66.94;;
77134;Laerm;25175;50.140;18.990;2023-07-22T13:04:12;45.52;34.25;69.53;;
77134;Laerm;25175;50.140;18.990;2023-07-22T13:07:19;44.70;33.53;70.67;;
77134;Laerm;25175;50.140;18.990;2023-07-22T13:10:28;42.13;33.81;57.13;;
77134;Laerm;25175;50.140;18.990;2023-07-22T13:13:37;41.29;33.70;57.68;;
77134;Laerm;25175;50.140;18.990;2023-07-22T13:16:41;47.63;34.04;63.89;;
77134;Laerm;25175;50.140;18.990;2023-07-22T13:19:46;41.17;33.47;55.16;;
77134;Laerm;25175;50.140;18.990;2023-07-22T13:22:53;41.79;33.60;56.82;;
77134;Laerm;25175;50.140;18.990;2023-07-22T13:25:59;41.87;34.01;55.92;;
77134;Laerm;25175;50.140;18.990;2023-07-22T13:29:04;44.66;34.40;60.49;;
77134;Laerm;25175;50.140;18.990;2023-07-22T13:32:11;43.65;33.87;57.37;;
77134;Laerm;25175;50.140;18.990;2023-07-22T13:35:15;48.14;34.37;65.38;;
77134;Laerm;25175;50.140;18.990;2023-07-22T13:38:23;43.21;34.55;55.95;;
77134;Laerm;25175;50.140;18.990;2023-07-22T13:41:28;48.69;35.12;77.80;;
77134;Laerm;25175;50.140;18.990;2023-07-22T13:44:34;44.29;34.04;71.96;;
77134;Laerm;25175;50.140;18.990;2023-07-22T13:47:39;57.40;34.96;77.11;;
77134;Laerm;25175;50.140;18.990;2023-07-22T13:50:44;55.44;34.42;78.03;;
77134;Laerm;25175;50.140;18.990;2023-07-22T13:53:51;52.74;33.79;75.58;;
77134;Laerm;25175;50.140;18.990;2023-07-22T13:56:57;53.58;33.86;73.57;;
77134;Laerm;25175;50.140;18.990;2023-07-22T14:00:01;46.45;35.10;64.44;;
77134;Laerm;25175;50.140;18.990;2023-07-22T14:03:14;54.58;34.05;74.16;;
77134;Laerm;25175;50.140;18.990;2023-07-22T14:06:19;57.98;34.35;83.44;;
77134;Laerm;25175;50.140;18.990;2023-07-22T14:09:27;44.35;33.44;74.20;;
77134;Laerm;25175;50.140;18.990;2023-07-22T14:12:31;44.36;34.19;57.13;;
77134;Laerm;25175;50.140;18.990;2023-07-22T14:15:37;52.08;34.14;76.28;;
77134;Laerm;25175;50.140;18.990;2023-07-22T14:18:41;57.59;33.94;76.01;;
77134;Laerm;25175;50.140;18.990;2023-07-22T14:21:46;45.22;35.58;58.30;;
77134;Laerm;25175;50.140;18.990;2023-07-22T14:24:53;45.87;36.83;57.69;;
77134;Laerm;25175;50.140;18.990;2023-07-22T14:27:58;59.62;36.99;78.24;;
77134;Laerm;25175;50.140;18.990;2023-07-22T14:31:02;60.27;38.27;74.79;;
77134;Laerm;25175;50.140;18.990;2023-07-22T14:34:08;61.58;36.95;82.80;;
77134;Laerm;25175;50.140;18.990;2023-07-22T14:37:13;50.03;35.14;72.77;;
77134;Laerm;25175;50.140;18.990;2023-07-22T14:40:21;45.43;35.20;65.30;;
77134;Laerm;25175;50.140;18.990;2023-07-22T14:43:26;44.45;35.45;55.81;;
77134;Laerm;25175;50.140;18.990;2023-07-22T14:46:31;43.08;34.58;53.54;;
77134;Laerm;25175;50.140;18.990;2023-07-22T14:49:36;46.18;34.89;65.39;;
77134;Laerm;25175;50.140;18.990;2023-07-22T14:52:41;44.73;35.44;57.80;;
77134;Laerm;25175;50.140;18.990;2023-07-22T14:55:48;41.98;33.94;57.30;;
77134;Laerm;25175;50.140;18.990;2023-07-22T14:58:53;43.04;33.82;57.67;;
77134;Laerm;25175;50.140;18.990;2023-07-22T15:01:57;42.99;34.28;56.11;;
77134;Laerm;25175;50.140;18.990;2023-07-22T15:05:03;48.47;36.34;63.84;;
77134;Laerm;25175;50.140;18.990;2023-07-22T15:08:08;46.60;36.02;61.35;;
77134;Laerm;25175;50.140;18.990;2023-07-22T15:11:16;43.82;35.46;60.04;;
77134;Laerm;25175;50.140;18.990;2023-07-22T15:14:20;44.07;35.96;58.03;;
77134;Laerm;25175;50.140;18.990;2023-07-22T15:17:25;43.72;34.78;54.98;;
77134;Laerm;25175;50.140;18.990;2023-07-22T15:20:33;47.90;35.17;65.33;;
77134;Laerm;25175;50.140;18.990;2023-07-22T15:23:38;44.54;35.21;61.13;;
77134;Laerm;25175;50.140;18.990;2023-07-22T15:26:46;43.62;34.10;58.53;;
77134;Laerm;25175;50.140;18.990;2023-07-22T15:29:51;45.35;34.55;63.71;;
77134;Laerm;25175;50.140;18.990;2023-07-22T15:32:55;43.18;34.42;70.30;;
77134;Laerm;25175;50.140;18.990;2023-07-22T15:36:01;42.72;34.98;67.69;;
77134;Laerm;25175;50.140;18.990;2023-07-22T15:39:05;40.88;34.65;55.28;;
77134;Laerm;25175;50.140;18.990;2023-07-22T15:42:13;39.12;34.29;54.41;;
77134;Laerm;25175;50.140;18.990;2023-07-22T15:45:17;43.74;34.10;60.13;;
77134;Laerm;25175;50.140;18.990;2023-07-22T15:48:23;44.43;36.24;60.30;;
77134;Laerm;25175;50.140;18.990;2023-07-22T15:51:27;42.18;35.09;54.66;;
77134;Laerm;25175;50.140;18.990;2023-07-22T15:54:32;42.79;36.20;54.91;;
77134;Laerm;25175;50.140;18.990;2023-07-22T15:57:39;42.81;34.42;58.07;;
77134;Laerm;25175;50.140;18.990;2023-07-22T16:00:45;48.99;34.56;65.96;;
77134;Laerm;25175;50.140;18.990;2023-07-22T16:03:49;42.03;35.73;55.36;;
77134;Laerm;25175;50.140;18.990;2023-07-22T16:06:54;45.58;35.22;57.76;;
77134;Laerm;25175;50.140;18.990;2023-07-22T16:09:59;45.19;34.84;57.37;;
77134;Laerm;25175;50.140;18.990;2023-07-22T16:13:07;44.36;35.34;60.01;;
77134;Laerm;25175;50.140;18.990;2023-07-22T16:16:12;40.80;34.90;53.48;;
77134;Laerm;25175;50.140;18.990;2023-07-22T16:19:17;44.34;34.15;64.44;;
77134;Laerm;25175;50.140;18.990;2023-07-22T16:22:22;39.29;34.46;56.32;;
77134;Laerm;25175;50.140;18.990;2023-07-22T16:25:27;42.47;34.42;54.68;;
77134;Laerm;25175;50.140;18.990;2023-07-22T16:28:34;39.33;34.51;57.95;;
77134;Laerm;25175;50.140;18.990;2023-07-22T16:31:39;42.03;34.26;60.50;;
77134;Laerm;25175;50.140;18.990;2023-07-22T16:34:43;46.43;34.27;66.40;;
77134;Laerm;25175;50.140;18.990;2023-07-22T16:37:49;42.84;34.29;59.25;;
77134;Laerm;25175;50.140;18.990;2023-07-22T16:40:55;45.83;34.53;61.70;;
77134;Laerm;25175;50.140;18.990;2023-07-22T16:44:03;44.78;33.85;60.72;;
77134;Laerm;25175;50.140;18.990;2023-07-22T16:47:08;45.17;33.47;59.33;;
77134;Laerm;25175;50.140;18.990;2023-07-22T16:50:13;36.12;33.27;44.73;;
77134;Laerm;25175;50.140;18.990;2023-07-22T16:53:18;39.77;33.16;52.75;;
77134;Laerm;25175;50.140;18.990;2023-07-22T16:56:23;50.01;33.37;66.68;;
77134;Laerm;25175;50.140;18.990;2023-07-22T16:59:30;42.47;33.56;56.42;;
77134;Laerm;25175;50.140;18.990;2023-07-22T17:02:35;42.37;33.44;64.45;;
77134;Laerm;25175;50.140;18.990;2023-07-22T17:05:40;39.41;33.56;52.76;;
77134;Laerm;25175;50.140;18.990;2023-07-22T17:08:45;55.15;33.75;82.31;;